CheckWX is a tool to help pilots better visualize weather data.  It is not intended as a substitute for an official pre-flight weather briefing.

14:48:54 UTC

UTAT TAF
Daşoguz Airport
Daşoguz, Turkmenistan
TAF UTAT 231032Z 2312/2412 25014KT 9999 SCT020 BKN050 530005

Mar-23@
12:00 UTC

Mar-23 @ 12:00 UTC

Mar-24@
12:00 UTC

Mar-24 @ 12:00 UTC

TAF UTAT 231032Z 2312/2412 25014KT 9999 SCT020 BKN050 530005
Wind
  • 250° at 14 KTS
Cloud Levels
  • Scattered at 2,000' AGL
  • Broken at 5,000' AGL
Turbulence
< Frequent moderate clear air turbulence expected at the surface extending to 5,000' AGL